Observation data for Denver City on 03/23/2019      Previous  Date  Next       Current Mesonet Observations  Soil Data  Daily Summary Page  Observations in Plain Language
KDVS 230500Z 18009KT 12/10 A2998 RMK A01 T01150095  RH  090%=      5-min Rain = 0
KDVS 230505Z 19009KT 12/09 A2998 RMK A01 T01150094  RH  090%=      5-min Rain = 0
KDVS 230510Z 20009KT 11/09 A2998 RMK A01 T01140094  RH  090%=      5-min Rain = 0
KDVS 230515Z 21008KT 11/09 A2998 RMK A01 T01130093  RH  090%=      5-min Rain = 0
KDVS 230520Z 22007KT 11/09 A2999 RMK A01 T01100091  RH  091%=      5-min Rain = 0
KDVS 230525Z 21008KT 11/09 A2998 RMK A01 T01100093  RH  092%=      5-min Rain = 0
KDVS 230530Z 20009KT 11/09 A2998 RMK A01 T01100093  RH  092%=      5-min Rain = 0
KDVS 230535Z 20008KT 11/09 A2998 RMK A01 T01100093  RH  092%=      5-min Rain = 0
KDVS 230540Z 21006KT 11/09 A2998 RMK A01 T01080090  RH  092%=      5-min Rain = 0
KDVS 230545Z 21006KT 11/09 A2998 RMK A01 T01050088  RH  092%=      5-min Rain = 0
KDVS 230550Z 22008KT 11/09 A2998 RMK A01 T01050089  RH  093%=      5-min Rain = 0
KDVS 230555Z 22008KT 11/09 A2998 RMK A01 T01050090  RH  093%=      5-min Rain = 0
KDVS 230600Z 22009KT 11/09 A2998 RMK A01 T01070093  RH  094%=      5-min Rain = 0
KDVS 230605Z 21009KT 11/09 A2998 RMK A01 T01090093  RH  093%=      5-min Rain = 0
KDVS 230610Z 20009KT 11/09 A2998 RMK A01 T01080091  RH  092%=      5-min Rain = 0
KDVS 230615Z 20009KT 11/09 A2998 RMK A01 T01070091  RH  093%=      5-min Rain = 0
KDVS 230620Z 20009KT 11/09 A2998 RMK A01 T01050090  RH  093%=      5-min Rain = 0
KDVS 230625Z 22008KT 10/09 A2998 RMK A01 T01040090  RH  093%=      5-min Rain = 0
KDVS 230630Z 23008KT 10/09 A2998 RMK A01 T01020088  RH  094%=      5-min Rain = 0
KDVS 230635Z 21009KT 10/09 A2998 RMK A01 T01010088  RH  095%=      5-min Rain = 0
KDVS 230640Z 21009KT 10/09 A2998 RMK A01 T01020090  RH  095%=      5-min Rain = 0
KDVS 230645Z 21008KT 10/09 A2998 RMK A01 T01010089  RH  095%=      5-min Rain = 0
KDVS 230650Z 22006KT 10/09 A2999 RMK A01 T00990087  RH  095%=      5-min Rain = 0
KDVS 230655Z 21006KT 10/09 A2999 RMK A01 T00970085  RH  095%=      5-min Rain = 0
KDVS 230700Z 22005KT 10/09 A2999 RMK A01 T00950085  RH  096%=      5-min Rain = 0
KDVS 230705Z 27007KT 09/08 A2999 RMK A01 T00930083  RH  096%=      5-min Rain = 0
KDVS 230710Z 23011KT 10/09 A2999 RMK A01 T01000093  RH  099%=      5-min Rain = 0
KDVS 230715Z 21010KT 10/10 A2999 RMK A01 T01040096  RH  097%=      5-min Rain = 0
KDVS 230720Z 22007KT 10/09 A30 RMK A01 T01030091  RH  095%=      5-min Rain = 0
KDVS 230725Z 22008KT 10/09 A30 RMK A01 T01030092  RH  096%=      5-min Rain = 0
KDVS 230730Z 24007KT 10/09 A30 RMK A01 T01040094  RH  097%=      5-min Rain = 0
KDVS 230735Z 24005KT 10/09 A30 RMK A01 T01030092  RH  096%=      5-min Rain = 0
KDVS 230740Z 27006KT 10/09 A3001 RMK A01 T01000089  RH  095%=      5-min Rain = 0
KDVS 230745Z 27006KT 10/09 A3001 RMK A01 T00980087  RH  096%=      5-min Rain = 0
KDVS 230750Z 24007KT 10/09 A3001 RMK A01 T00990091  RH  098%=      5-min Rain = 0
KDVS 230755Z 25006KT 10/09 A3001 RMK A01 T00990090  RH  097%=      5-min Rain = 0
KDVS 230800Z 25006KT 09/08 A3001 RMK A01 T00940084  RH  096%=      5-min Rain = 0
KDVS 230805Z 27006KT 09/08 A3001 RMK A01 T00910081  RH  096%=      5-min Rain = 0
KDVS 230810Z 26007KT 09/08 A3001 RMK A01 T00880080  RH  097%=      5-min Rain = 0
KDVS 230815Z 26007KT 09/08 A30 RMK A01 T00880080  RH  098%=      5-min Rain = 0
KDVS 230820Z 26008KT 09/08 A30 RMK A01 T00870080  RH  098%=      5-min Rain = 0
KDVS 230825Z 26007KT 09/08 A30 RMK A01 T00850078  RH  098%=      5-min Rain = 0
KDVS 230830Z 27006KT 08/08 A30 RMK A01 T00820075  RH  098%=      5-min Rain = 0
KDVS 230835Z 27006KT 08/07 A30 RMK A01 T00800073  RH  098%=      5-min Rain = 0
KDVS 230840Z 26007KT 08/08 A30 RMK A01 T00800075  RH  099%=      5-min Rain = 0
KDVS 230845Z 26008KT 08/08 A30 RMK A01 T00820077  RH  099%=      5-min Rain = 0
KDVS 230850Z 26007KT 08/08 A30 RMK A01 T00840079  RH  100%=      5-min Rain = 0
KDVS 230855Z 26006KT 08/08 A30 RMK A01 T00830079  RH  100%=      5-min Rain = 0
KDVS 230900Z 25006KT 08/08 A30 RMK A01 T00820077  RH  099%=      5-min Rain = 0
KDVS 230905Z 25007KT 08/08 A30 RMK A01 T00820077  RH  100%=      5-min Rain = 0
KDVS 230910Z 24007KT 08/08 A30 RMK A01 T00820078  RH  100%=      5-min Rain = 0
KDVS 230915Z 25007KT 08/08 A30 RMK A01 T00810077  RH  100%=      5-min Rain = 0
KDVS 230920Z 25007KT 08/08 A30 RMK A01 T00800076  RH  100%=      5-min Rain = 0
KDVS 230925Z 25007KT 08/08 A30 RMK A01 T00790075  RH  100%=      5-min Rain = 0
KDVS 230930Z 26006KT 08/07 A30 RMK A01 T00760072  RH  100%=      5-min Rain = 0
KDVS 230935Z 26006KT 07/07 A30 RMK A01 T00730069  RH  100%=      5-min Rain = 0
KDVS 230940Z 26005KT 07/06 A30 RMK A01 T00690064  RH  099%=      5-min Rain = 0
KDVS 230945Z 26005KT 06/06 A30 RMK A01 T00630058  RH  099%=      5-min Rain = 0
KDVS 230950Z 25004KT 06/05 A30 RMK A01 T00550050  RH  098%=      5-min Rain = 0
KDVS 230955Z 25004KT 05/05 A30 RMK A01 T00510047  RH  099%=      5-min Rain = 0
KDVS 231000Z 26005KT 05/05 A30 RMK A01 T00520048  RH  100%=      5-min Rain = 0
KDVS 231005Z 27005KT 05/05 A30 RMK A01 T00510047  RH  100%=      5-min Rain = 0
KDVS 231010Z 26004KT 05/04 A30 RMK A01 T00460043  RH  100%=      5-min Rain = 0
KDVS 231015Z 27004KT 04/04 A30 RMK A01 T00420039  RH  100%=      5-min Rain = 0
KDVS 231020Z 28006KT 04/04 A30 RMK A01 T00390036  RH  100%=      5-min Rain = 0
KDVS 231025Z 29007KT 03/03 A30 RMK A01 T00340031  RH  099%=      5-min Rain = 0
KDVS 231030Z 30007KT 03/03 A30 RMK A01 T00310026  RH  098%=      5-min Rain = 0
KDVS 231035Z 30008KT 03/02 A30 RMK A01 T00290019  RH  094%=      5-min Rain = 0
KDVS 231040Z 30008KT 03/01 A30 RMK A01 T00300011  RH  089%=      5-min Rain = 0
KDVS 231045Z 30008KT 03/01 A30 RMK A01 T00300007  RH  086%=      5-min Rain = 0
KDVS 231050Z 30008KT 03/00 A30 RMK A01 T00300002  RH  083%=      5-min Rain = 0
KDVS 231055Z 30007KT 03/M00 A30 RMK A01 T00291001  RH  082%=      5-min Rain = 0
KDVS 231100Z 30008KT 03/M00 A30 RMK A01 T00271002  RH  082%=      5-min Rain = 0
KDVS 231105Z 31008KT 03/M00 A30 RMK A01 T00271003  RH  081%=      5-min Rain = 0
KDVS 231110Z 31008KT 03/M01 A30 RMK A01 T00291005  RH  079%=      5-min Rain = 0
KDVS 231115Z 31008KT 03/M01 A3001 RMK A01 T00291006  RH  078%=      5-min Rain = 0
KDVS 231120Z 30007KT 03/M01 A3001 RMK A01 T00281008  RH  078%=      5-min Rain = 0
KDVS 231125Z 30007KT 03/M01 A3001 RMK A01 T00281008  RH  078%=      5-min Rain = 0
KDVS 231130Z 30007KT 03/M01 A3001 RMK A01 T00281009  RH  077%=      5-min Rain = 0
KDVS 231135Z 30008KT 03/M01 A3001 RMK A01 T00281011  RH  076%=      5-min Rain = 0
KDVS 231140Z 29008KT 03/M01 A3001 RMK A01 T00281013  RH  075%=      5-min Rain = 0
KDVS 231145Z 29008KT 03/M01 A3001 RMK A01 T00271014  RH  075%=      5-min Rain = 0
KDVS 231150Z 29009KT 03/M02 A3002 RMK A01 T00251015  RH  075%=      5-min Rain = 0
KDVS 231155Z 29008KT 03/M01 A3002 RMK A01 T00251014  RH  076%=      5-min Rain = 0
KDVS 231200Z 28008KT 02/M01 A3002 RMK A01 T00231013  RH  078%=      5-min Rain = 0
KDVS 231205Z 29007KT 02/M01 A3002 RMK A01 T00241013  RH  077%=      5-min Rain = 0
KDVS 231210Z 28007KT 02/M01 A3002 RMK A01 T00241014  RH  077%=      5-min Rain = 0
KDVS 231215Z 28007KT 02/M01 A3002 RMK A01 T00221014  RH  078%=      5-min Rain = 0
KDVS 231220Z 28006KT 02/M01 A3002 RMK A01 T00211013  RH  079%=      5-min Rain = 0
KDVS 231225Z 28006KT 02/M01 A3003 RMK A01 T00201013  RH  080%=      5-min Rain = 0
KDVS 231230Z 27006KT 02/M01 A3003 RMK A01 T00181013  RH  081%=      5-min Rain = 0
KDVS 231235Z 26007KT 02/M01 A3003 RMK A01 T00161013  RH  082%=      5-min Rain = 0
KDVS 231240Z 27007KT 02/M01 A3003 RMK A01 T00161012  RH  083%=      5-min Rain = 0
KDVS 231245Z 28008KT 02/M01 A3003 RMK A01 T00161012  RH  082%=      5-min Rain = 0
KDVS 231250Z 28008KT 02/M01 A3004 RMK A01 T00171013  RH  082%=      5-min Rain = 0
KDVS 231255Z 28008KT 02/M01 A3004 RMK A01 T00181013  RH  081%=      5-min Rain = 0
KDVS 231300Z 28008KT 02/M02 A3004 RMK A01 T00221015  RH  077%=      5-min Rain = 0
KDVS 231305Z 28008KT 02/M02 A3004 RMK A01 T00241015  RH  076%=      5-min Rain = 0
KDVS 231310Z 28008KT 03/M02 A3004 RMK A01 T00271016  RH  074%=      5-min Rain = 0
KDVS 231315Z 28007KT 03/M02 A3005 RMK A01 T00301016  RH  072%=      5-min Rain = 0
KDVS 231320Z 28006KT 03/M01 A3005 RMK A01 T00311014  RH  073%=      5-min Rain = 0
KDVS 231325Z 28006KT 03/M01 A3005 RMK A01 T00311012  RH  074%=      5-min Rain = 0
KDVS 231330Z 29007KT 03/M01 A3005 RMK A01 T00331010  RH  074%=      5-min Rain = 0
KDVS 231335Z 29007KT 04/M01 A3005 RMK A01 T00371009  RH  073%=      5-min Rain = 0
KDVS 231340Z 29008KT 04/M01 A3006 RMK A01 T00421008  RH  071%=      5-min Rain = 0
KDVS 231345Z 29007KT 05/M01 A3006 RMK A01 T00481005  RH  070%=      5-min Rain = 0
KDVS 231350Z 29008KT 05/M00 A3006 RMK A01 T00531003  RH  068%=      5-min Rain = 0
KDVS 231355Z 29008KT 06/M00 A3006 RMK A01 T00591001  RH  067%=      5-min Rain = 0
KDVS 231400Z 29007KT 06/00 A3006 RMK A01 T00640001  RH  065%=      5-min Rain = 0
KDVS 231405Z 29007KT 07/00 A3006 RMK A01 T00700002  RH  063%=      5-min Rain = 0
KDVS 231410Z 29006KT 07/01 A3006 RMK A01 T00740006  RH  063%=      5-min Rain = 0
KDVS 231415Z 28005KT 08/01 A3007 RMK A01 T00800010  RH  062%=      5-min Rain = 0
KDVS 231420Z 28006KT 09/01 A3007 RMK A01 T00850006  RH  058%=      5-min Rain = 0
KDVS 231425Z 28005KT 09/01 A3007 RMK A01 T00890006  RH  057%=      5-min Rain = 0
KDVS 231430Z 28005KT 09/00 A3007 RMK A01 T00940003  RH  054%=      5-min Rain = 0
KDVS 231435Z 28005KT 10/00 A3007 RMK A01 T01000002  RH  051%=      5-min Rain = 0
KDVS 231440Z 28005KT 11/M00 A3007 RMK A01 T01061003  RH  047%=      5-min Rain = 0
KDVS 231445Z 28006KT 11/M01 A3007 RMK A01 T01121007  RH  044%=      5-min Rain = 0
KDVS 231450Z 28006KT 12/M01 A3007 RMK A01 T01161010  RH  042%=      5-min Rain = 0
KDVS 231455Z 29006KT 12/M01 A3007 RMK A01 T01221010  RH  041%=      5-min Rain = 0
KDVS 231500Z 28007KT 13/M01 A3008 RMK A01 T01251013  RH  039%=      5-min Rain = 0
KDVS 231505Z 28007KT 13/M02 A3008 RMK A01 T01281022  RH  036%=      5-min Rain = 0
KDVS 231510Z 28007KT 13/M03 A3008 RMK A01 T01311025  RH  034%=      5-min Rain = 0
KDVS 231515Z 28007KT 13/M03 A3008 RMK A01 T01341031  RH  032%=      5-min Rain = 0
KDVS 231520Z 28007KT 14/M04 A3008 RMK A01 T01381035  RH  030%=      5-min Rain = 0
KDVS 231525Z 27007KT 14/M04 A3008 RMK A01 T01401035  RH  030%=      5-min Rain = 0
KDVS 231530Z 29008KT 14/M04 A3008 RMK A01 T01441038  RH  028%=      5-min Rain = 0
KDVS 231535Z 29009KT 15/M04 A3008 RMK A01 T01461042  RH  027%=      5-min Rain = 0
KDVS 231540Z 30009KT 15/M04 A3008 RMK A01 T01471044  RH  027%=      5-min Rain = 0
KDVS 231545Z 30010G15KT 15/M04 A3007 RMK A01 T01491043  RH  026%=      5-min Rain = 0
KDVS 231550Z 30011G16KT 15/M05 A3007 RMK A01 T01501045  RH  026%=      5-min Rain = 0
KDVS 231555Z 30012G17KT 15/M05 A3007 RMK A01 T01481046  RH  026%=      5-min Rain = 0
KDVS 231600Z 30012G18KT 15/M04 A3007 RMK A01 T01511042  RH  026%=      5-min Rain = 0
KDVS 231605Z 30013G18KT 15/M04 A3007 RMK A01 T01521042  RH  026%=      5-min Rain = 0
KDVS 231610Z 30013G18KT 16/M04 A3007 RMK A01 T01581039  RH  026%=      5-min Rain = 0
KDVS 231615Z 30012G17KT 16/M04 A3007 RMK A01 T01561041  RH  026%=      5-min Rain = 0
KDVS 231620Z 30013KT 16/M04 A3007 RMK A01 T01571042  RH  025%=      5-min Rain = 0
KDVS 231625Z 30015KT 16/M04 A3006 RMK A01 T01601044  RH  024%=      5-min Rain = 0
KDVS 231630Z 30015G20KT 16/M05 A3006 RMK A01 T01621045  RH  024%=      5-min Rain = 0
KDVS 231635Z 29014G20KT 16/M04 A3006 RMK A01 T01631043  RH  024%=      5-min Rain = 0
KDVS 231640Z 29014KT 17/M04 A3006 RMK A01 T01661042  RH  024%=      5-min Rain = 0
KDVS 231645Z 29014KT 17/M04 A3006 RMK A01 T01691042  RH  023%=      5-min Rain = 0
KDVS 231650Z 29014KT 17/M04 A3006 RMK A01 T01711044  RH  023%=      5-min Rain = 0
KDVS 231655Z 29013G25KT 17/M04 A3006 RMK A01 T01711043  RH  023%=      5-min Rain = 0
KDVS 231700Z 29014G19KT 18/M05 A3006 RMK A01 T01751045  RH  022%=      5-min Rain = 0
KDVS 231705Z 30017G23KT 18/M05 A3006 RMK A01 T01751050  RH  021%=      5-min Rain = 0
KDVS 231710Z 29013G23KT 18/M05 A3005 RMK A01 T01781046  RH  022%=      5-min Rain = 0
KDVS 231715Z 29014G19KT 18/M05 A3005 RMK A01 T01801045  RH  021%=      5-min Rain = 0
KDVS 231720Z 29016KT 18/M05 A3005 RMK A01 T01801051  RH  020%=      5-min Rain = 0
KDVS 231725Z 29014KT 18/M05 A3005 RMK A01 T01801051  RH  020%=      5-min Rain = 0
KDVS 231730Z 29014G21KT 18/M05 A3005 RMK A01 T01801049  RH  021%=      5-min Rain = 0
KDVS 231735Z 27014G19KT 18/M06 A3005 RMK A01 T01821057  RH  019%=      5-min Rain = 0
KDVS 231740Z 28015G23KT 18/M05 A3005 RMK A01 T01821054  RH  020%=      5-min Rain = 0
KDVS 231745Z 28014G19KT 18/M05 A3005 RMK A01 T01841051  RH  020%=      5-min Rain = 0
KDVS 231750Z 29016G22KT 19/M05 A3005 RMK A01 T01851052  RH  020%=      5-min Rain = 0
KDVS 231755Z 28014G21KT 19/M05 A3005 RMK A01 T01861054  RH  019%=      5-min Rain = 0
KDVS 231800Z 29016G22KT 19/M06 A3005 RMK A01 T01851058  RH  019%=      5-min Rain = 0
KDVS 231805Z 27014G22KT 19/M06 A3005 RMK A01 T01851059  RH  018%=      5-min Rain = 0
KDVS 231810Z 28015G22KT 19/M06 A3005 RMK A01 T01871060  RH  018%=      5-min Rain = 0
KDVS 231815Z 28015G21KT 19/M06 A3004 RMK A01 T01871060  RH  018%=      5-min Rain = 0
KDVS 231820Z 27015G22KT 19/M06 A3004 RMK A01 T01881060  RH  018%=      5-min Rain = 0
KDVS 231825Z 27013G20KT 19/M06 A3004 RMK A01 T01871063  RH  018%=      5-min Rain = 0
KDVS 231830Z 27015G22KT 19/M06 A3004 RMK A01 T01881059  RH  018%=      5-min Rain = 0
KDVS 231835Z 27013G18KT 19/M06 A3004 RMK A01 T01881061  RH  018%=      5-min Rain = 0
KDVS 231840Z 26014G21KT 19/M06 A3004 RMK A01 T01881062  RH  018%=      5-min Rain = 0
KDVS 231845Z 28011G21KT 19/M06 A3004 RMK A01 T01881059  RH  018%=      5-min Rain = 0
KDVS 231850Z 27015G22KT 19/M06 A3003 RMK A01 T01911063  RH  017%=      5-min Rain = 0
KDVS 231855Z 27012G18KT 19/M06 A3003 RMK A01 T01901061  RH  018%=      5-min Rain = 0
KDVS 231900Z 27012G21KT 19/M06 A3003 RMK A01 T01921061  RH  017%=      5-min Rain = 0
KDVS 231905Z 26015KT 20/M07 A3003 RMK A01 T01971066  RH  016%=      5-min Rain = 0
KDVS 231910Z 27013G20KT 20/M07 A3002 RMK A01 T01981068  RH  016%=      5-min Rain = 0
KDVS 231915Z 26015G20KT 20/M07 A3002 RMK A01 T01981071  RH  016%=      5-min Rain = 0
KDVS 231920Z 24015G23KT 20/M08 A3002 RMK A01 T02011077  RH  015%=      5-min Rain = 0
KDVS 231925Z 25017G22KT 20/M08 A3002 RMK A01 T02041077  RH  014%=      5-min Rain = 0
KDVS 231930Z 27013G22KT 20/M08 A3002 RMK A01 T01981082  RH  014%=      5-min Rain = 0
KDVS 231935Z 25017KT 20/M08 A3002 RMK A01 T01951078  RH  015%=      5-min Rain = 0
KDVS 231940Z 25015G20KT 20/M08 A3002 RMK A01 T01951081  RH  015%=      5-min Rain = 0
KDVS 231945Z 26015G23KT 20/M08 A3002 RMK A01 T01991079  RH  015%=      5-min Rain = 0
KDVS 231950Z 26016G22KT 20/M08 A3002 RMK A01 T01981083  RH  014%=      5-min Rain = 0
KDVS 231955Z 25015KT 20/M08 A3001 RMK A01 T01991082  RH  014%=      5-min Rain = 0
KDVS 232000Z 26013G18KT 20/M08 A3001 RMK A01 T01991081  RH  014%=      5-min Rain = 0
KDVS 232005Z 26016G30KT 20/M08 A3001 RMK A01 T02031081  RH  014%=      5-min Rain = 0
KDVS 232010Z 26013KT 21/M08 A3001 RMK A01 T02051081  RH  014%=      5-min Rain = 0
KDVS 232015Z 26013G19KT 20/M09 A3001 RMK A01 T02031085  RH  014%=      5-min Rain = 0
KDVS 232020Z 27014G21KT 20/M08 A30 RMK A01 T02021084  RH  014%=      5-min Rain = 0
KDVS 232025Z 27013G23KT 21/M08 A30 RMK A01 T02081083  RH  013%=      5-min Rain = 0
KDVS 232030Z 27013G19KT 21/M08 A30 RMK A01 T02071082  RH  013%=      5-min Rain = 0
KDVS 232035Z 27013G18KT 21/M08 A30 RMK A01 T02061084  RH  013%=      5-min Rain = 0
KDVS 232040Z 27012G17KT 21/M08 A30 RMK A01 T02071084  RH  013%=      5-min Rain = 0
KDVS 232045Z 26012G18KT 21/M09 A30 RMK A01 T02101086  RH  013%=      5-min Rain = 0
KDVS 232050Z 26012KT 21/M09 A2999 RMK A01 T02111087  RH  013%=      5-min Rain = 0
KDVS 232055Z 26013G27KT 21/M09 A2999 RMK A01 T02081086  RH  013%=      5-min Rain = 0
KDVS 232100Z 25015G21KT 21/M09 A2999 RMK A01 T02091088  RH  013%=      5-min Rain = 0
KDVS 232105Z 25014G19KT 21/M09 A2999 RMK A01 T02101093  RH  012%=      5-min Rain = 0
KDVS 232110Z 26011G16KT 21/M09 A2999 RMK A01 T02101094  RH  012%=      5-min Rain = 0
KDVS 232115Z 26013G19KT 21/M09 A2998 RMK A01 T02131094  RH  012%=      5-min Rain = 0
KDVS 232120Z 26010G19KT 21/M09 A2998 RMK A01 T02111093  RH  012%=      5-min Rain = 0
KDVS 232125Z 25013G19KT 21/M09 A2998 RMK A01 T02131089  RH  012%=      5-min Rain = 0
KDVS 232130Z 25011G17KT 22/M09 A2998 RMK A01 T02151087  RH  012%=      5-min Rain = 0
KDVS 232135Z 23014G21KT 21/M09 A2998 RMK A01 T02111090  RH  012%=      5-min Rain = 0
KDVS 232140Z 22014G21KT 21/M10 A2998 RMK A01 T02071096  RH  012%=      5-min Rain = 0
KDVS 232145Z 23012G17KT 21/M09 A2998 RMK A01 T02061094  RH  012%=      5-min Rain = 0
KDVS 232150Z 25014G19KT 21/M10 A2998 RMK A01 T02071095  RH  012%=      5-min Rain = 0
KDVS 232155Z 24012G18KT 21/M10 A2998 RMK A01 T02051098  RH  012%=      5-min Rain = 0
KDVS 232200Z 26014G19KT 21/M10 A2998 RMK A01 T02061099  RH  012%=      5-min Rain = 0
KDVS 232205Z 26014KT 21/M10 A2998 RMK A01 T02051100  RH  012%=      5-min Rain = 0
KDVS 232210Z 25011G16KT 21/M10 A2998 RMK A01 T02051099  RH  012%=      5-min Rain = 0
KDVS 232215Z 24012KT 21/M10 A2998 RMK A01 T02071097  RH  012%=      5-min Rain = 0
KDVS 232220Z 24012KT 21/M09 A2997 RMK A01 T02081094  RH  012%=      5-min Rain = 0
KDVS 232225Z 25012KT 21/M10 A2997 RMK A01 T02081100  RH  012%=      5-min Rain = 0
KDVS 232230Z 25013KT 21/M10 A2997 RMK A01 T02061102  RH  012%=      5-min Rain = 0
KDVS 232235Z 26009G15KT 20/M10 A2997 RMK A01 T02041102  RH  012%=      5-min Rain = 0
KDVS 232240Z 26008KT 21/M10 A2997 RMK A01 T02051098  RH  012%=      5-min Rain = 0
KDVS 232245Z 25011G16KT 21/M10 A2997 RMK A01 T02061096  RH  012%=      5-min Rain = 0
KDVS 232250Z 25011KT 21/M10 A2997 RMK A01 T02071097  RH  012%=      5-min Rain = 0
KDVS 232255Z 25011KT 21/M10 A2996 RMK A01 T02081095  RH  012%=      5-min Rain = 0
KDVS 232300Z 23012KT 21/M09 A2996 RMK A01 T02091089  RH  013%=      5-min Rain = 0
KDVS 232305Z 23011KT 21/M10 A2996 RMK A01 T02071095  RH  012%=      5-min Rain = 0
KDVS 232310Z 22012KT 21/M09 A2996 RMK A01 T02071089  RH  013%=      5-min Rain = 0
KDVS 232315Z 23013KT 21/M09 A2996 RMK A01 T02061090  RH  013%=      5-min Rain = 0
KDVS 232320Z 22013KT 20/M09 A2996 RMK A01 T02041092  RH  013%=      5-min Rain = 0
KDVS 232325Z 22012KT 20/M09 A2996 RMK A01 T02001092  RH  013%=      5-min Rain = 0
KDVS 232330Z 21011KT 20/M09 A2996 RMK A01 T01971089  RH  014%=      5-min Rain = 0
KDVS 232335Z 22011KT 20/M09 A2996 RMK A01 T01961091  RH  013%=      5-min Rain = 0
KDVS 232340Z 23010KT 20/M09 A2996 RMK A01 T02001093  RH  013%=      5-min Rain = 0
KDVS 232345Z 23010KT 21/M10 A2996 RMK A01 T02061095  RH  012%=      5-min Rain = 0
KDVS 232350Z 24010KT 21/M09 A2996 RMK A01 T02091093  RH  012%=      5-min Rain = 0
KDVS 232355Z 23010KT 21/M10 A2996 RMK A01 T02061100  RH  012%=      5-min Rain = 0
KDVS 240000Z 24008KT 21/M10 A2996 RMK A01 T02051097  RH  012%=      5-min Rain = 0
KDVS 240005Z 23008KT 20/M10 A2996 RMK A01 T02031096  RH  012%=      5-min Rain = 0
KDVS 240010Z 23010KT 20/M10 A2996 RMK A01 T02001097  RH  013%=      5-min Rain = 0
KDVS 240015Z 23009KT 20/M10 A2996 RMK A01 T02001097  RH  013%=      5-min Rain = 0
KDVS 240020Z 22009KT 20/M10 A2996 RMK A01 T01991099  RH  012%=      5-min Rain = 0
KDVS 240025Z 22007KT 20/M09 A2996 RMK A01 T01971094  RH  013%=      5-min Rain = 0
KDVS 240030Z 21007KT 19/M09 A2996 RMK A01 T01931089  RH  014%=      5-min Rain = 0
KDVS 240035Z 22007KT 19/M08 A2996 RMK A01 T01911084  RH  015%=      5-min Rain = 0
KDVS 240040Z 22008KT 19/M09 A2996 RMK A01 T01891085  RH  015%=      5-min Rain = 0
KDVS 240045Z 22007KT 19/M08 A2996 RMK A01 T01851080  RH  016%=      5-min Rain = 0
KDVS 240050Z 22007KT 18/M08 A2997 RMK A01 T01801075  RH  017%=      5-min Rain = 0
KDVS 240055Z 22007KT 17/M07 A2997 RMK A01 T01741070  RH  018%=      5-min Rain = 0
KDVS 240100Z 23007KT 17/M07 A2997 RMK A01 T01681069  RH  019%=      5-min Rain = 0
KDVS 240105Z 22007KT 16/M07 A2997 RMK A01 T01611071  RH  020%=      5-min Rain = 0
KDVS 240110Z 23008KT 16/M07 A2998 RMK A01 T01561074  RH  020%=      5-min Rain = 0
KDVS 240115Z 23008KT 15/M08 A2998 RMK A01 T01531078  RH  020%=      5-min Rain = 0
KDVS 240120Z 22008KT 15/M08 A2998 RMK A01 T01491078  RH  020%=      5-min Rain = 0
KDVS 240125Z 22007KT 14/M08 A2998 RMK A01 T01431077  RH  021%=      5-min Rain = 0
KDVS 240130Z 23007KT 14/M08 A2998 RMK A01 T01411078  RH  021%=      5-min Rain = 0
KDVS 240135Z 23007KT 14/M08 A2998 RMK A01 T01411079  RH  021%=      5-min Rain = 0
KDVS 240140Z 23007KT 14/M08 A2998 RMK A01 T01401077  RH  021%=      5-min Rain = 0
KDVS 240145Z 23007KT 14/M07 A2999 RMK A01 T01351071  RH  023%=      5-min Rain = 0
KDVS 240150Z 23006KT 13/M07 A2998 RMK A01 T01311066  RH  025%=      5-min Rain = 0
KDVS 240155Z 23006KT 13/M06 A2999 RMK A01 T01291060  RH  026%=      5-min Rain = 0
KDVS 240200Z 23006KT 13/M07 A2999 RMK A01 T01301066  RH  025%=      5-min Rain = 0
KDVS 240205Z 22006KT 13/M07 A2999 RMK A01 T01301069  RH  024%=      5-min Rain = 0
KDVS 240210Z 22005KT 13/M07 A2999 RMK A01 T01301066  RH  025%=      5-min Rain = 0
KDVS 240215Z 22005KT 13/M07 A2999 RMK A01 T01321066  RH  025%=      5-min Rain = 0
KDVS 240220Z 22005KT 13/M07 A30 RMK A01 T01311066  RH  025%=      5-min Rain = 0
KDVS 240225Z 22004KT 12/M06 A30 RMK A01 T01231063  RH  027%=      5-min Rain = 0
KDVS 240230Z 21005KT 13/M07 A30 RMK A01 T01261067  RH  026%=      5-min Rain = 0
KDVS 240235Z 22006KT 13/M07 A30 RMK A01 T01281067  RH  025%=      5-min Rain = 0
KDVS 240240Z 22005KT 13/M07 A30 RMK A01 T01281069  RH  025%=      5-min Rain = 0
KDVS 240245Z 20005KT 14/M08 A30 RMK A01 T01361079  RH  022%=      5-min Rain = 0
KDVS 240250Z 20005KT 14/M08 A30 RMK A01 T01431083  RH  020%=      5-min Rain = 0
KDVS 240255Z 19005KT 14/M08 A3001 RMK A01 T01441082  RH  020%=      5-min Rain = 0
KDVS 240300Z 19006KT 14/M08 A3001 RMK A01 T01411080  RH  021%=      5-min Rain = 0
KDVS 240305Z 19006KT 14/M08 A3001 RMK A01 T01351075  RH  022%=      5-min Rain = 0
KDVS 240310Z 20006KT 13/M07 A3001 RMK A01 T01291069  RH  025%=      5-min Rain = 0
KDVS 240315Z 20005KT 12/M06 A3001 RMK A01 T01201062  RH  028%=      5-min Rain = 0
KDVS 240320Z 20006KT 12/M06 A3002 RMK A01 T01161061  RH  028%=      5-min Rain = 0
KDVS 240325Z 20006KT 12/M06 A3002 RMK A01 T01151063  RH  028%=      5-min Rain = 0
KDVS 240330Z 21006KT 12/M06 A3002 RMK A01 T01161064  RH  028%=      5-min Rain = 0
KDVS 240335Z 21007KT 11/M07 A3002 RMK A01 T01141065  RH  028%=      5-min Rain = 0
KDVS 240340Z 20006KT 11/M06 A3002 RMK A01 T01091063  RH  029%=      5-min Rain = 0
KDVS 240345Z 20006KT 11/M07 A3003 RMK A01 T01081065  RH  029%=      5-min Rain = 0
KDVS 240350Z 20007KT 11/M07 A3003 RMK A01 T01051065  RH  030%=      5-min Rain = 0
KDVS 240355Z 21007KT 10/M07 A3002 RMK A01 T01011066  RH  030%=      5-min Rain = 0
KDVS 240400Z 21006KT 10/M07 A3003 RMK A01 T01011068  RH  030%=      5-min Rain = 0
KDVS 240405Z 21007KT 10/M07 A3003 RMK A01 T01031070  RH  029%=      5-min Rain = 0
KDVS 240410Z 21007KT 10/M07 A3002 RMK A01 T01011067  RH  030%=      5-min Rain = 0
KDVS 240415Z 21007KT 10/M07 A3002 RMK A01 T00981065  RH  031%=      5-min Rain = 0
KDVS 240420Z 21007KT 10/M06 A3002 RMK A01 T00951064  RH  032%=      5-min Rain = 0
KDVS 240425Z 20007KT 09/M06 A3002 RMK A01 T00921062  RH  033%=      5-min Rain = 0
KDVS 240430Z 21007KT 09/M06 A3002 RMK A01 T00891061  RH  034%=      5-min Rain = 0
KDVS 240435Z 21008KT 09/M06 A3002 RMK A01 T00891060  RH  035%=      5-min Rain = 0
KDVS 240440Z 21008KT 09/M06 A3002 RMK A01 T00871059  RH  035%=      5-min Rain = 0
KDVS 240445Z 21008KT 09/M06 A3002 RMK A01 T00871061  RH  035%=      5-min Rain = 0
KDVS 240450Z 21008KT 09/M06 A3002 RMK A01 T00881061  RH  034%=      5-min Rain = 0
KDVS 240455Z 21008KT 09/M06 A3002 RMK A01 T00881063  RH  034%=      5-min Rain = 0

Page generated in 0.009 seconds.